Time;durP1;ratioP1;P1;durP2;ratioP2;P2;SDS_P1;SDS_P2;PMS_P1;PMS_P2;Temp;Humidity;BMP_temperature;BMP_pressure;BME280_temperature;BME280_humidity;BME280_pressure;Samples;Min_cycle;Max_cycle;Signal;HPM_P1;HPM_P2
2022/02/18 00:02:09;;;;;;;3.30;0.60;;;10.10;57.90;;;;;;5124055;27;20109;-85
2022/02/18 00:04:35;;;;;;;6.00;0.90;;;10.00;57.70;;;;;;5123325;28;20038;-84
2022/02/18 00:07:01;;;;;;;4.37;1.33;;;9.90;57.60;;;;;;5137525;27;20027;-85
2022/02/18 00:09:26;;;;;;;2.50;0.63;;;9.90;57.90;;;;;;5133029;27;20080;-84
2022/02/18 00:11:52;;;;;;;3.97;0.70;;;9.90;57.90;;;;;;5142205;27;20032;-85
2022/02/18 00:14:18;;;;;;;3.33;0.80;;;9.70;57.80;;;;;;5120356;27;20027;-85
2022/02/18 00:16:45;;;;;;;4.50;0.87;;;9.60;58.30;;;;;;5134653;27;20019;-85
2022/02/18 00:19:11;;;;;;;3.87;0.80;;;9.60;58.50;;;;;;5127627;27;20118;-84
2022/02/18 00:21:37;;;;;;;3.53;0.77;;;9.60;58.40;;;;;;5141589;27;20102;-84
2022/02/18 00:24:02;;;;;;;6.60;0.80;;;9.60;58.60;;;;;;5135823;27;20034;-84
2022/02/18 00:26:28;;;;;;;1.90;0.70;;;9.60;58.40;;;;;;5126001;27;20032;-85
2022/02/18 00:28:54;;;;;;;1.87;0.60;;;9.50;58.50;;;;;;5140271;27;21006;-84
2022/02/18 00:31:20;;;;;;;2.90;0.90;;;9.50;58.60;;;;;;5133606;27;20034;-84
2022/02/18 00:33:45;;;;;;;3.67;0.83;;;9.50;58.60;;;;;;5138824;27;20487;-84
2022/02/18 00:36:11;;;;;;;4.80;0.93;;;9.50;58.60;;;;;;5120888;27;20113;-84
2022/02/18 00:38:38;;;;;;;4.00;0.90;;;9.40;58.70;;;;;;5130142;27;20184;-85
2022/02/18 00:41:06;;;;;;;4.87;0.80;;;9.40;58.80;;;;;;5148998;27;20019;-85
2022/02/18 00:43:31;;;;;;;3.77;0.67;;;9.30;58.80;;;;;;5159280;27;20051;-84
2022/02/18 00:45:57;;;;;;;3.87;0.97;;;9.20;59.00;;;;;;5151087;27;20054;-84
2022/02/18 00:48:23;;;;;;;2.37;0.87;;;9.20;59.20;;;;;;5160907;27;20011;-85
2022/02/18 00:50:48;;;;;;;3.93;1.00;;;9.20;59.30;;;;;;5171304;27;20043;-85
2022/02/18 00:53:14;;;;;;;6.43;1.20;;;9.20;59.50;;;;;;5159097;27;20014;-86
2022/02/18 00:55:40;;;;;;;11.37;4.00;;;9.20;59.60;;;;;;5145673;27;20023;-84
2022/02/18 00:58:06;;;;;;;5.20;1.53;;;9.20;59.60;;;;;;5147560;27;20038;-86
2022/02/18 01:00:32;;;;;;;4.83;1.43;;;9.00;59.60;;;;;;5154776;27;21722;-85
2022/02/18 01:02:57;;;;;;;3.63;0.90;;;9.00;59.80;;;;;;5175318;27;20036;-85
2022/02/18 01:05:23;;;;;;;4.20;1.20;;;9.00;59.70;;;;;;5151147;27;20023;-85
2022/02/18 01:07:49;;;;;;;5.37;1.23;;;9.00;59.70;;;;;;5148092;27;20023;-84
2022/02/18 01:10:14;;;;;;;4.50;1.13;;;8.90;59.80;;;;;;5154549;27;20027;-85
2022/02/18 01:12:41;;;;;;;6.20;1.70;;;8.80;59.60;;;;;;5155168;27;20046;-86
2022/02/18 01:15:08;;;;;;;5.50;1.53;;;8.70;59.90;;;;;;5148446;27;20048;-85
2022/02/18 01:17:34;;;;;;;4.87;1.87;;;8.70;60.00;;;;;;5164069;27;20039;-84
2022/02/18 01:20:00;;;;;;;5.60;1.30;;;8.80;60.00;;;;;;5150331;27;20033;-85
2022/02/18 01:22:25;;;;;;;4.80;1.07;;;8.70;59.80;;;;;;5165530;27;20041;-84
2022/02/18 01:24:51;;;;;;;2.23;0.77;;;8.70;60.00;;;;;;5144844;27;20027;-85
2022/02/18 01:27:17;;;;;;;7.60;1.07;;;8.70;60.00;;;;;;5149234;28;20051;-84
2022/02/18 01:29:42;;;;;;;3.63;0.97;;;8.70;60.20;;;;;;5145268;28;20022;-86
2022/02/18 01:32:10;;;;;;;2.47;0.73;;;8.80;60.40;;;;;;5148536;27;20045;-84
2022/02/18 01:34:36;;;;;;;1.73;0.87;;;8.80;60.20;;;;;;5152091;27;20008;-85
2022/02/18 01:37:02;;;;;;;2.80;1.00;;;8.80;60.30;;;;;;5167618;27;20021;-85
2022/02/18 01:39:28;;;;;;;5.17;2.00;;;8.70;60.40;;;;;;5150241;27;20019;-84
2022/02/18 01:41:53;;;;;;;4.70;1.80;;;8.70;60.10;;;;;;5136976;27;20479;-85
2022/02/18 01:44:41;;;;;;;4.53;1.27;;;8.70;60.40;;;;;;5126374;28;20077;-85
2022/02/18 01:47:11;;;;;;;3.83;1.37;;;8.70;60.40;;;;;;5121996;27;20040;-84
2022/02/18 01:49:36;;;;;;;3.70;1.47;;;8.70;60.50;;;;;;5130092;28;20039;-84
2022/02/18 01:52:03;;;;;;;5.63;1.00;;;8.70;60.60;;;;;;5129323;28;20035;-84
2022/02/18 01:54:29;;;;;;;3.50;1.10;;;8.70;60.80;;;;;;5128840;27;20035;-84
2022/02/18 01:56:54;;;;;;;4.43;1.60;;;8.80;61.00;;;;;;5130289;28;20532;-84
2022/02/18 01:59:20;;;;;;;3.17;1.10;;;8.70;60.90;;;;;;5130755;27;20440;-85
2022/02/18 02:01:46;;;;;;;5.83;1.20;;;8.60;60.80;;;;;;5131808;27;20114;-84
2022/02/18 02:04:12;;;;;;;3.30;1.20;;;8.60;60.80;;;;;;5131358;27;20456;-84
2022/02/18 02:06:39;;;;;;;2.33;0.70;;;8.50;60.90;;;;;;5132235;27;20054;-85
2022/02/18 02:09:05;;;;;;;5.53;0.90;;;8.50;61.10;;;;;;5128919;27;20058;-84
2022/02/18 02:11:30;;;;;;;2.80;1.43;;;8.50;61.10;;;;;;5132981;27;20027;-84
2022/02/18 02:14:02;;;;;;;4.53;0.90;;;8.50;61.00;;;;;;5132520;27;20035;-84
2022/02/18 02:16:28;;;;;;;3.22;0.90;;;8.40;61.00;;;;;;5129750;27;20023;-84
2022/02/18 02:18:54;;;;;;;3.87;0.80;;;8.20;61.20;;;;;;5133476;27;20042;-84
2022/02/18 02:21:22;;;;;;;4.20;0.70;;;8.10;61.40;;;;;;5131285;27;20024;-85
2022/02/18 02:23:48;;;;;;;3.43;1.00;;;8.10;61.70;;;;;;5127916;27;20023;-85
2022/02/18 02:26:15;;;;;;;5.67;0.97;;;8.00;61.70;;;;;;5123313;27;20034;-85
2022/02/18 02:28:41;;;;;;;5.97;0.83;;;8.10;61.50;;;;;;5148120;27;20156;-84
2022/02/18 02:31:07;;;;;;;2.63;0.87;;;8.00;61.30;;;;;;5137056;27;20113;-83
2022/02/18 02:33:33;;;;;;;4.57;0.60;;;8.00;61.50;;;;;;5118976;27;20151;-84
2022/02/18 02:35:59;;;;;;;3.87;1.10;;;8.00;61.50;;;;;;5134720;27;20173;-85
2022/02/18 02:38:25;;;;;;;1.87;0.90;;;8.00;61.70;;;;;;5133072;27;20024;-85
2022/02/18 02:40:51;;;;;;;2.67;0.80;;;8.00;61.60;;;;;;5130118;27;20035;-84
2022/02/18 02:43:16;;;;;;;4.13;0.80;;;8.00;61.70;;;;;;5130635;27;20027;-84
2022/02/18 02:45:43;;;;;;;3.63;0.97;;;8.00;61.60;;;;;;5120952;27;20032;-84
2022/02/18 02:48:08;;;;;;;2.13;0.73;;;8.00;61.80;;;;;;5133093;27;20031;-84
2022/02/18 02:50:34;;;;;;;5.83;1.20;;;8.00;61.90;;;;;;5149984;27;20027;-85
2022/02/18 02:53:00;;;;;;;5.00;1.03;;;8.00;61.90;;;;;;5157290;27;20054;-84
2022/02/18 02:55:26;;;;;;;1.93;0.93;;;8.00;61.90;;;;;;5136730;27;20479;-84
2022/02/18 02:57:52;;;;;;;3.03;1.37;;;8.00;62.00;;;;;;5130210;27;20027;-84
2022/02/18 03:00:17;;;;;;;4.07;1.33;;;8.00;62.00;;;;;;5130966;27;20030;-84
2022/02/18 03:02:44;;;;;;;6.40;1.60;;;8.10;61.80;;;;;;5131615;27;20475;-84
2022/02/18 03:05:11;;;;;;;5.63;1.07;;;8.00;61.80;;;;;;5147025;27;20038;-84
2022/02/18 03:07:37;;;;;;;6.07;1.40;;;8.00;61.90;;;;;;5126261;27;20494;-84
2022/02/18 03:10:05;;;;;;;6.73;1.63;;;8.10;62.00;;;;;;5125785;27;20054;-84
2022/02/18 03:12:31;;;;;;;4.00;1.20;;;8.10;62.00;;;;;;5143867;27;20030;-84
2022/02/18 03:14:57;;;;;;;7.40;1.20;;;8.00;62.10;;;;;;5149090;27;20042;-83
2022/02/18 03:17:23;;;;;;;6.10;1.80;;;8.00;62.10;;;;;;5131550;27;20114;-84
2022/02/18 03:19:49;;;;;;;6.87;2.30;;;8.00;62.20;;;;;;5126324;27;20395;-84
2022/02/18 03:22:16;;;;;;;4.50;1.23;;;7.90;62.30;;;;;;5124152;27;20023;-84
2022/02/18 03:24:42;;;;;;;4.73;1.47;;;7.90;62.20;;;;;;5133159;27;20130;-84
2022/02/18 03:27:08;;;;;;;4.43;1.27;;;7.90;62.30;;;;;;5125450;27;20025;-84
2022/02/18 03:29:34;;;;;;;4.97;1.53;;;7.80;62.40;;;;;;5134850;27;20027;-84
2022/02/18 03:32:01;;;;;;;13.47;1.63;;;7.80;62.60;;;;;;5134793;27;20031;-84
2022/02/18 03:34:26;;;;;;;6.90;1.27;;;7.80;62.60;;;;;;5131449;27;20031;-84
2022/02/18 03:36:52;;;;;;;5.50;1.30;;;7.80;62.90;;;;;;5130403;27;20416;-84
2022/02/18 03:39:18;;;;;;;5.03;1.07;;;7.80;63.00;;;;;;5133649;27;20475;-84
2022/02/18 03:41:44;;;;;;;5.47;1.10;;;7.80;63.00;;;;;;5136478;27;20023;-84
2022/02/18 03:44:10;;;;;;;4.93;1.30;;;7.80;62.80;;;;;;5149843;27;20490;-84
2022/02/18 03:46:36;;;;;;;5.63;1.37;;;7.80;62.80;;;;;;5130920;27;20045;-84
2022/02/18 03:49:02;;;;;;;2.90;0.90;;;7.80;63.00;;;;;;5128031;27;20036;-84
2022/02/18 03:51:28;;;;;;;6.50;1.40;;;7.90;62.90;;;;;;5127931;27;20437;-85
2022/02/18 03:53:54;;;;;;;7.37;2.13;;;7.90;62.90;;;;;;5129749;27;20039;-84
2022/02/18 03:56:20;;;;;;;7.73;2.20;;;7.90;62.80;;;;;;5130238;27;20031;-84
2022/02/18 03:58:46;;;;;;;6.83;1.83;;;7.80;62.90;;;;;;5127706;27;20054;-84
2022/02/18 04:01:12;;;;;;;4.97;2.33;;;7.90;62.80;;;;;;5130108;27;20062;-84
2022/02/18 04:03:39;;;;;;;3.77;1.20;;;7.80;62.90;;;;;;5129128;27;20082;-84
2022/02/18 04:06:05;;;;;;;4.63;1.87;;;7.80;63.00;;;;;;5124722;27;20512;-85
2022/02/18 04:08:31;;;;;;;7.93;2.27;;;7.90;63.00;;;;;;5130707;27;20499;-84
2022/02/18 04:10:57;;;;;;;5.73;2.50;;;7.80;63.00;;;;;;5127225;27;20042;-84
2022/02/18 04:13:22;;;;;;;9.57;2.20;;;7.80;63.20;;;;;;5125997;27;20054;-84
2022/02/18 04:15:49;;;;;;;7.67;1.67;;;7.80;63.30;;;;;;5131293;27;20023;-84
2022/02/18 04:18:15;;;;;;;4.50;1.20;;;7.80;63.30;;;;;;5128622;27;20372;-85
2022/02/18 04:20:40;;;;;;;8.80;1.80;;;7.80;63.40;;;;;;5149602;27;20034;-85
2022/02/18 04:23:06;;;;;;;5.90;1.17;;;7.70;63.50;;;;;;5129188;27;20039;-85
2022/02/18 04:25:32;;;;;;;4.37;1.23;;;7.70;63.70;;;;;;5129727;27;20027;-85
2022/02/18 04:28:00;;;;;;;4.33;1.50;;;7.70;63.70;;;;;;5134058;27;20030;-85
2022/02/18 04:30:26;;;;;;;5.43;1.37;;;7.70;63.70;;;;;;5134646;27;20016;-84
2022/02/18 04:32:52;;;;;;;5.43;1.13;;;7.60;63.80;;;;;;5151419;27;20034;-85
2022/02/18 04:35:19;;;;;;;5.87;1.30;;;7.60;63.80;;;;;;5127618;27;20035;-85
2022/02/18 04:37:45;;;;;;;4.27;1.40;;;7.70;63.90;;;;;;5133103;27;20031;-85
2022/02/18 04:40:12;;;;;;;5.40;1.60;;;7.70;63.60;;;;;;5134099;27;20076;-85
2022/02/18 04:42:38;;;;;;;2.70;1.00;;;7.70;63.60;;;;;;5151941;27;20024;-85
2022/02/18 04:45:05;;;;;;;1.90;0.63;;;7.60;63.70;;;;;;5126897;27;20076;-85
2022/02/18 04:47:30;;;;;;;5.73;1.40;;;7.50;63.90;;;;;;5125949;27;20590;-85
2022/02/18 04:49:56;;;;;;;5.30;1.03;;;7.60;63.90;;;;;;5133486;27;20035;-85
2022/02/18 04:52:22;;;;;;;6.00;0.80;;;7.50;63.90;;;;;;5133649;27;20497;-85
2022/02/18 04:54:47;;;;;;;2.47;0.83;;;7.40;63.90;;;;;;5129413;27;20138;-85
2022/02/18 04:57:13;;;;;;;5.13;1.17;;;7.50;64.00;;;;;;5130753;27;20037;-86
2022/02/18 04:59:39;;;;;;;6.70;1.40;;;7.50;63.80;;;;;;5127693;27;20035;-85
2022/02/18 05:02:05;;;;;;;5.87;1.00;;;7.50;63.70;;;;;;5131076;27;20034;-84
2022/02/18 05:04:31;;;;;;;4.83;1.30;;;7.40;63.70;;;;;;5144760;27;20507;-84
2022/02/18 05:06:57;;;;;;;8.10;1.30;;;7.40;63.80;;;;;;5125815;27;20424;-85
2022/02/18 05:09:23;;;;;;;5.90;1.43;;;7.40;63.60;;;;;;5126367;27;20400;-84
2022/02/18 05:11:49;;;;;;;7.83;2.27;;;7.30;63.50;;;;;;5129197;28;20196;-84
2022/02/18 05:14:16;;;;;;;12.53;4.17;;;7.30;63.40;;;;;;5131966;27;20038;-83
2022/02/18 05:16:42;;;;;;;8.37;2.80;;;7.20;63.70;;;;;;5127501;28;20029;-83
2022/02/18 05:19:09;;;;;;;5.63;1.93;;;7.20;63.70;;;;;;5131581;27;20144;-83
2022/02/18 05:21:39;;;;;;;5.77;2.23;;;7.10;63.60;;;;;;5141849;27;20020;-83
2022/02/18 05:24:06;;;;;;;8.83;3.10;;;7.10;63.90;;;;;;5129822;28;20084;-84
2022/02/18 05:26:32;;;;;;;8.53;3.20;;;6.90;64.00;;;;;;5128867;27;20023;-84
2022/02/18 05:28:58;;;;;;;11.30;3.40;;;6.90;64.30;;;;;;5128371;27;20395;-84
2022/02/18 05:31:24;;;;;;;9.33;3.50;;;6.90;64.20;;;;;;5128052;27;20031;-84
2022/02/18 05:33:50;;;;;;;9.50;3.60;;;6.90;64.30;;;;;;5129146;27;20480;-83
2022/02/18 05:36:15;;;;;;;7.97;3.93;;;6.90;64.30;;;;;;5145669;27;20035;-83
2022/02/18 05:38:43;;;;;;;16.47;6.83;;;6.90;64.20;;;;;;5137018;27;20027;-83
2022/02/18 05:41:16;;;;;;;11.60;5.03;;;6.90;64.10;;;;;;5137081;27;20051;-83
2022/02/18 05:43:42;;;;;;;10.27;4.40;;;6.90;64.20;;;;;;5133212;27;20031;-84
2022/02/18 05:46:08;;;;;;;9.30;4.33;;;6.90;64.20;;;;;;5127159;27;20372;-83
2022/02/18 05:48:35;;;;;;;10.40;4.33;;;6.90;64.30;;;;;;5130120;27;20037;-84
2022/02/18 05:51:05;;;;;;;9.10;3.90;;;6.90;64.30;;;;;;5131387;27;20062;-83
2022/02/18 05:53:32;;;;;;;10.83;4.00;;;6.90;64.20;;;;;;5147730;27;20037;-83
2022/02/18 05:55:58;;;;;;;12.07;5.27;;;6.90;64.10;;;;;;5128343;27;20084;-84
2022/02/18 05:58:23;;;;;;;10.90;4.17;;;6.90;64.00;;;;;;5133490;27;20019;-83
2022/02/18 06:00:49;;;;;;;8.97;4.93;;;6.80;64.10;;;;;;5131194;27;20030;-84
2022/02/18 06:03:15;;;;;;;9.00;4.43;;;6.80;64.30;;;;;;5129896;27;20156;-84
2022/02/18 06:05:41;;;;;;;10.37;3.80;;;6.80;64.40;;;;;;5133104;27;20563;-83
2022/02/18 06:08:07;;;;;;;7.57;3.57;;;6.80;64.60;;;;;;5123406;27;20043;-83
2022/02/18 06:10:35;;;;;;;11.33;6.47;;;6.80;64.70;;;;;;5133332;27;20099;-83
2022/02/18 06:13:01;;;;;;;9.63;4.47;;;6.80;64.60;;;;;;5134100;27;20153;-84
2022/02/18 06:15:27;;;;;;;13.37;4.93;;;6.80;64.50;;;;;;5137410;27;20080;-83
2022/02/18 06:17:53;;;;;;;9.63;4.23;;;6.70;64.60;;;;;;5138640;27;20033;-83
2022/02/18 06:20:19;;;;;;;6.27;3.60;;;6.70;64.90;;;;;;5140533;27;20050;-83
2022/02/18 06:22:45;;;;;;;10.70;5.73;;;6.70;65.10;;;;;;5139134;27;20027;-84
2022/02/18 06:25:12;;;;;;;13.67;5.60;;;6.70;65.10;;;;;;5128148;27;20031;-83
2022/02/18 06:27:38;;;;;;;12.73;6.50;;;6.60;65.10;;;;;;5127590;27;20038;-82
2022/02/18 06:30:04;;;;;;;12.60;6.63;;;6.70;65.10;;;;;;5130242;27;20023;-83
2022/02/18 06:32:30;;;;;;;14.20;6.90;;;6.60;65.00;;;;;;5135059;27;20412;-84
2022/02/18 06:34:56;;;;;;;24.03;12.60;;;6.60;65.10;;;;;;5147461;27;20027;-84
2022/02/18 06:37:22;;;;;;;32.37;14.97;;;6.70;64.90;;;;;;5135565;27;20031;-84
2022/02/18 06:39:48;;;;;;;42.20;20.10;;;6.70;64.70;;;;;;5129065;27;20023;-84
2022/02/18 06:42:14;;;;;;;44.70;23.67;;;6.80;64.60;;;;;;5135476;27;20566;-84
2022/02/18 06:44:40;;;;;;;46.03;24.73;;;6.80;64.40;;;;;;5130078;27;20663;-84
2022/02/18 06:47:06;;;;;;;32.10;16.97;;;6.80;64.90;;;;;;5127594;27;20552;-83
2022/02/18 06:49:32;;;;;;;30.73;14.40;;;6.80;64.50;;;;;;5133687;27;20432;-84
2022/02/18 06:51:58;;;;;;;24.07;13.47;;;6.70;64.50;;;;;;5129902;27;20118;-83
2022/02/18 06:54:25;;;;;;;22.03;10.23;;;6.80;64.80;;;;;;5130861;27;20126;-84
2022/02/18 06:56:51;;;;;;;25.67;13.17;;;6.80;64.60;;;;;;5128092;27;20035;-84
2022/02/18 06:59:18;;;;;;;30.03;15.90;;;6.80;64.60;;;;;;5135775;27;20023;-84
2022/02/18 07:01:47;;;;;;;31.57;14.40;;;6.80;64.60;;;;;;5134246;27;20027;-84
2022/02/18 07:04:13;;;;;;;28.07;13.87;;;6.80;64.70;;;;;;5131487;27;20027;-84
2022/02/18 07:06:39;;;;;;;23.03;13.53;;;6.80;64.80;;;;;;5134089;27;20027;-83
2022/02/18 07:09:07;;;;;;;28.47;15.27;;;6.80;64.60;;;;;;5130445;27;20395;-84
2022/02/18 07:11:33;;;;;;;24.93;13.77;;;6.80;64.50;;;;;;5131450;27;20026;-84
2022/02/18 07:13:59;;;;;;;20.77;11.87;;;6.80;64.50;;;;;;5127816;27;20035;-84
2022/02/18 07:16:24;;;;;;;21.73;10.33;;;6.80;64.40;;;;;;5125828;27;20028;-83
2022/02/18 07:18:50;;;;;;;15.63;9.33;;;6.80;64.50;;;;;;5122044;27;20042;-84
2022/02/18 07:21:17;;;;;;;15.83;9.57;;;6.90;64.50;;;;;;5128784;27;20027;-84
2022/02/18 07:23:43;;;;;;;14.53;7.47;;;6.90;64.60;;;;;;5131957;27;20035;-84
2022/02/18 07:26:10;;;;;;;9.57;5.23;;;6.90;64.70;;;;;;5131214;27;20036;-84
2022/02/18 07:28:36;;;;;;;9.33;4.63;;;6.90;64.70;;;;;;5130754;27;20027;-84
2022/02/18 07:31:02;;;;;;;14.57;5.30;;;6.90;64.80;;;;;;5130464;27;20049;-84
2022/02/18 07:33:28;;;;;;;14.57;7.43;;;6.90;65.10;;;;;;5130105;27;20484;-84
2022/02/18 07:35:53;;;;;;;12.23;7.10;;;6.90;65.10;;;;;;5131305;27;20411;-84
2022/02/18 07:38:19;;;;;;;15.20;8.17;;;7.00;65.40;;;;;;5127274;27;20027;-84
2022/02/18 07:40:45;;;;;;;24.00;13.07;;;7.10;65.40;;;;;;5128637;27;20511;-84
2022/02/18 07:43:11;;;;;;;19.13;10.47;;;7.10;65.40;;;;;;5125738;27;20115;-84
2022/02/18 07:45:37;;;;;;;18.60;11.63;;;7.20;65.40;;;;;;5126172;27;20034;-84
2022/02/18 07:48:03;;;;;;;15.00;9.00;;;7.20;65.20;;;;;;5131200;27;20027;-84
2022/02/18 07:50:29;;;;;;;14.90;8.13;;;7.30;65.20;;;;;;5128517;27;20110;-84
2022/02/18 07:52:55;;;;;;;16.73;8.73;;;7.20;65.10;;;;;;5129366;27;20375;-84
2022/02/18 07:55:21;;;;;;;13.77;7.50;;;7.30;65.20;;;;;;5128632;27;20071;-84
2022/02/18 07:57:47;;;;;;;14.27;7.43;;;7.30;65.80;;;;;;5131477;27;20444;-84
2022/02/18 08:00:14;;;;;;;8.93;5.00;;;7.40;65.20;;;;;;5132438;27;20083;-84
2022/02/18 08:02:40;;;;;;;10.60;5.00;;;7.40;65.70;;;;;;5128108;27;20028;-84
2022/02/18 08:05:06;;;;;;;12.83;6.40;;;7.40;65.10;;;;;;5122166;27;20427;-84
2022/02/18 08:07:32;;;;;;;13.63;6.30;;;7.40;65.30;;;;;;5145128;27;20448;-84
2022/02/18 08:09:58;;;;;;;15.30;6.93;;;7.50;65.30;;;;;;5129606;27;20118;-84
2022/02/18 08:12:24;;;;;;;12.50;6.63;;;7.60;65.10;;;;;;5146288;27;20042;-84
2022/02/18 08:14:50;;;;;;;10.93;6.30;;;7.70;65.00;;;;;;5142198;27;20121;-84
2022/02/18 08:17:16;;;;;;;16.47;6.90;;;7.70;64.90;;;;;;5128048;27;20038;-84
2022/02/18 08:19:42;;;;;;;13.97;5.67;;;7.80;64.90;;;;;;5123774;27;20056;-84
2022/02/18 08:22:07;;;;;;;14.63;6.83;;;7.80;64.70;;;;;;5124453;27;20058;-85
2022/02/18 08:24:33;;;;;;;13.90;6.77;;;7.90;65.10;;;;;;5127293;27;20530;-84
2022/02/18 08:27:01;;;;;;;14.57;6.80;;;8.00;64.90;;;;;;5125084;27;20035;-84
2022/02/18 08:29:27;;;;;;;9.47;5.90;;;8.00;64.70;;;;;;5127098;27;20479;-84
2022/02/18 08:31:54;;;;;;;11.33;7.77;;;8.10;64.60;;;;;;5128734;27;20092;-84
2022/02/18 08:34:20;;;;;;;13.23;7.00;;;8.20;64.60;;;;;;5127823;27;20528;-84
2022/02/18 08:36:46;;;;;;;19.13;9.03;;;8.30;64.50;;;;;;5140936;27;20052;-84
2022/02/18 08:39:13;;;;;;;10.77;7.90;;;8.40;64.50;;;;;;5128120;27;20093;-84
2022/02/18 08:41:39;;;;;;;15.13;7.50;;;8.60;64.20;;;;;;5126540;27;20488;-85
2022/02/18 08:44:05;;;;;;;13.63;8.43;;;8.80;63.50;;;;;;5127728;27;20176;-85
2022/02/18 08:46:32;;;;;;;12.70;7.20;;;9.00;63.10;;;;;;5129158;27;20061;-84
2022/02/18 08:48:58;;;;;;;10.47;5.63;;;9.40;62.50;;;;;;5126280;27;20106;-84
2022/02/18 08:51:25;;;;;;;11.53;6.50;;;9.30;61.70;;;;;;5125969;27;20039;-84
2022/02/18 08:53:51;;;;;;;15.37;6.80;;;9.20;61.90;;;;;;5128970;27;20071;-85
2022/02/18 08:56:18;;;;;;;15.00;6.23;;;9.20;62.30;;;;;;5128904;27;20055;-84
2022/02/18 08:58:44;;;;;;;9.53;5.27;;;9.30;62.20;;;;;;5122501;27;20510;-84
2022/02/18 09:01:11;;;;;;;10.57;6.17;;;9.30;62.40;;;;;;5126565;27;20033;-84
2022/02/18 09:03:37;;;;;;;12.00;6.70;;;9.30;62.40;;;;;;5128004;27;20088;-85
2022/02/18 09:06:03;;;;;;;13.13;8.00;;;9.30;62.40;;;;;;5129263;27;20037;-84
2022/02/18 09:08:29;;;;;;;12.80;5.23;;;9.30;62.30;;;;;;5127737;27;20031;-84
2022/02/18 09:10:56;;;;;;;11.10;7.37;;;9.20;62.30;;;;;;5126047;28;20031;-84
2022/02/18 09:13:25;;;;;;;10.03;4.87;;;9.30;63.10;;;;;;5126966;28;20024;-84
2022/02/18 09:15:51;;;;;;;13.00;7.23;;;9.30;62.40;;;;;;5127910;28;20106;-84
2022/02/18 09:18:18;;;;;;;9.23;4.93;;;9.40;62.50;;;;;;5125508;28;20395;-84
2022/02/18 09:20:48;;;;;;;9.40;5.37;;;9.50;62.90;;;;;;5128406;28;20023;-84
2022/02/18 09:23:15;;;;;;;9.13;4.73;;;9.50;62.00;;;;;;5126089;28;20057;-84
2022/02/18 09:25:41;;;;;;;12.23;5.47;;;9.50;62.00;;;;;;5128615;28;20403;-85
2022/02/18 09:28:08;;;;;;;7.97;3.50;;;9.50;62.20;;;;;;5125922;28;20052;-85
2022/02/18 09:30:39;;;;;;;7.53;3.00;;;9.60;61.90;;;;;;5127945;28;20436;-84
2022/02/18 09:33:05;;;;;;;5.53;2.40;;;9.70;61.60;;;;;;5127535;28;20116;-84
2022/02/18 09:35:31;;;;;;;9.90;4.67;;;9.80;61.30;;;;;;5130049;27;20039;-85
2022/02/18 09:37:57;;;;;;;12.23;5.30;;;9.90;61.20;;;;;;5127745;27;20055;-85
2022/02/18 09:40:23;;;;;;;14.87;5.73;;;9.90;61.00;;;;;;5127277;28;20527;-85
2022/02/18 09:42:49;;;;;;;14.13;4.80;;;9.90;61.00;;;;;;5126259;28;20404;-84
2022/02/18 09:45:17;;;;;;;12.63;4.17;;;10.10;61.10;;;;;;5125727;28;20037;-84
2022/02/18 09:47:43;;;;;;;8.30;4.27;;;10.10;60.90;;;;;;5129223;27;20501;-84
2022/02/18 09:50:10;;;;;;;12.83;3.67;;;10.10;60.60;;;;;;5121770;28;20126;-84
2022/02/18 09:52:36;;;;;;;14.90;5.50;;;10.20;60.50;;;;;;5127629;28;20059;-84
2022/02/18 09:55:02;;;;;;;16.07;6.93;;;10.30;60.50;;;;;;5124189;28;20842;-85
2022/02/18 09:57:28;;;;;;;8.30;4.57;;;10.50;60.60;;;;;;5126831;27;20077;-85
2022/02/18 09:59:54;;;;;;;10.03;4.17;;;10.60;60.40;;;;;;5127456;28;20780;-84
2022/02/18 10:02:20;;;;;;;16.67;5.30;;;10.80;60.00;;;;;;5125514;28;20027;-85
2022/02/18 10:04:46;;;;;;;13.07;4.30;;;11.00;59.60;;;;;;5129516;28;20054;-85
2022/02/18 10:07:12;;;;;;;12.10;5.17;;;11.20;59.70;;;;;;5131028;27;20059;-85
2022/02/18 10:09:40;;;;;;;11.47;4.40;;;11.40;59.20;;;;;;5126034;28;20027;-85
2022/02/18 10:12:07;;;;;;;18.47;5.70;;;11.60;58.70;;;;;;5143974;27;20087;-85
2022/02/18 10:14:56;;;;;;;17.03;4.80;;;11.70;58.30;;;;;;5141567;27;20023;-85
2022/02/18 10:17:24;;;;;;;12.97;4.43;;;11.70;57.60;;;;;;5123123;27;20467;-85
2022/02/18 10:19:54;;;;;;;15.83;4.17;;;11.70;57.70;;;;;;5132739;27;20059;-85
2022/02/18 10:22:28;;;;;;;17.13;5.67;;;11.70;57.40;;;;;;5135742;27;20027;-85
2022/02/18 10:24:54;;;;;;;7.20;3.80;;;11.80;57.40;;;;;;5136522;27;20027;-84
2022/02/18 10:27:41;;;;;;;9.17;3.90;;;11.80;57.30;;;;;;5132308;27;20032;-85
2022/02/18 10:30:07;;;;;;;10.77;3.27;;;12.00;57.30;;;;;;5139125;27;20026;-85
2022/02/18 10:32:42;;;;;;;6.57;2.40;;;12.30;57.10;;;;;;5136633;27;20129;-85
2022/02/18 10:35:08;;;;;;;8.83;2.50;;;12.50;56.30;;;;;;5155229;27;20060;-85
2022/02/18 10:37:35;;;;;;;11.40;2.60;;;12.60;55.90;;;;;;5126568;27;20475;-85
2022/02/18 10:40:07;;;;;;;8.67;2.63;;;12.70;55.60;;;;;;5150192;27;20027;-86
2022/02/18 10:42:33;;;;;;;;;;;12.70;54.80;;;;;;5150188;27;20044;-85
2022/02/18 10:45:16;;;;;;;8.17;3.33;;;12.80;55.00;;;;;;5141766;27;19923;-85
2022/02/18 10:47:43;;;;;;;11.48;3.15;;;12.90;54.50;;;;;;5144889;27;20035;-85
2022/02/18 10:50:18;;;;;;;8.03;2.90;;;12.80;54.10;;;;;;5136384;27;20031;-86
2022/02/18 10:53:14;;;;;;;11.07;3.93;;;12.90;53.70;;;;;;5152339;27;20050;-85
2022/02/18 10:55:58;;;;;;;8.70;3.80;;;12.80;53.50;;;;;;5147832;27;20030;-86
2022/02/18 10:58:29;;;;;;;6.03;3.10;;;12.80;53.50;;;;;;5136058;27;20419;-86
2022/02/18 11:01:06;;;;;;;6.70;3.27;;;12.80;53.40;;;;;;5127854;27;20019;-86
2022/02/18 11:03:32;;;;;;;5.73;2.60;;;12.80;52.90;;;;;;5134998;27;20019;-86
2022/02/18 11:06:19;;;;;;;16.30;3.50;;;12.80;53.00;;;;;;5150500;27;20089;-85
2022/02/18 11:08:59;;;;;;;9.30;2.40;;;12.90;52.90;;;;;;5122952;27;20080;-85
2022/02/18 11:11:45;;;;;;;6.90;2.67;;;13.10;52.70;;;;;;5139523;27;20046;-85
2022/02/18 11:14:15;;;;;;;9.87;2.77;;;13.10;52.40;;;;;;5149974;27;20483;-85
2022/02/18 11:16:44;;;;;;;8.23;3.27;;;13.10;52.30;;;;;;5143122;27;20023;-85
2022/02/18 11:19:10;;;;;;;9.20;3.07;;;13.10;51.90;;;;;;5143703;27;20028;-84
2022/02/18 11:21:36;;;;;;;11.93;3.77;;;12.90;51.90;;;;;;5127739;27;20023;-86
2022/02/18 11:24:04;;;;;;;7.70;3.30;;;12.80;52.10;;;;;;5123918;27;20507;-85
2022/02/18 11:26:32;;;;;;;13.17;3.10;;;12.70;52.30;;;;;;5134493;27;20027;-85
2022/02/18 11:28:59;;;;;;;9.47;2.73;;;12.70;52.20;;;;;;5149300;27;20033;-85
2022/02/18 11:31:38;;;;;;;7.60;2.73;;;12.70;52.30;;;;;;5151600;27;20092;-84
2022/02/18 11:34:40;;;;;;;8.10;3.40;;;12.70;52.70;;;;;;5133112;27;20027;-85
2022/02/18 11:37:24;;;;;;;9.93;3.83;;;12.60;52.10;;;;;;5148639;27;20023;-85
2022/02/18 11:40:06;;;;;;;6.60;3.30;;;12.70;52.20;;;;;;5151752;27;20069;-85
2022/02/18 11:42:42;;;;;;;8.77;2.50;;;12.80;51.80;;;;;;5145151;27;20030;-84
2022/02/18 11:45:18;;;;;;;8.67;2.67;;;12.80;51.40;;;;;;5134782;27;20031;-85
2022/02/18 11:47:46;;;;;;;5.33;2.13;;;12.70;51.00;;;;;;5113130;28;20043;-84
2022/02/18 11:50:13;;;;;;;11.50;2.10;;;12.70;51.10;;;;;;5144639;27;20113;-85
2022/02/18 11:52:43;;;;;;;8.33;1.93;;;12.60;50.90;;;;;;5150917;27;20023;-83
2022/02/18 11:55:32;;;;;;;11.40;2.70;;;12.60;51.00;;;;;;5133561;27;20101;-85
2022/02/18 11:58:08;;;;;;;7.43;2.43;;;12.70;50.70;;;;;;5135281;27;20026;-84
2022/02/18 12:00:38;;;;;;;14.50;3.13;;;12.70;50.70;;;;;;5138954;27;20039;-85
2022/02/18 12:03:11;;;;;;;8.33;2.53;;;12.70;50.60;;;;;;5145327;27;20058;-84
2022/02/18 12:05:56;;;;;;;;;;;12.60;50.30;;;;;;5135061;27;20030;-85
2022/02/18 12:08:29;;;;;;;11.43;2.77;;;12.60;50.80;;;;;;5143044;27;19907;-85
2022/02/18 12:10:55;;;;;;;10.23;2.70;;;12.80;50.80;;;;;;5136383;27;20027;-85
2022/02/18 12:13:21;;;;;;;6.03;2.63;;;12.80;50.80;;;;;;5132034;27;20020;-85
2022/02/18 12:15:48;;;;;;;10.23;2.30;;;12.80;50.70;;;;;;5129801;27;20026;-85
2022/02/18 12:18:24;;;;;;;12.63;2.97;;;12.80;50.60;;;;;;5152313;27;20414;-84
2022/02/18 12:21:08;;;;;;;8.57;3.03;;;12.80;50.40;;;;;;5127893;27;20031;-85
2022/02/18 12:23:41;;;;;;;10.17;3.07;;;12.70;50.40;;;;;;5133869;27;20499;-85
2022/02/18 12:26:19;;;;;;;11.50;2.40;;;12.60;50.70;;;;;;5136133;27;20024;-86
2022/02/18 12:28:50;;;;;;;10.80;2.13;;;12.60;50.70;;;;;;5141009;27;20107;-84
2022/02/18 12:31:16;;;;;;;5.37;2.50;;;12.60;50.40;;;;;;5135319;27;20026;-84
2022/02/18 12:33:44;;;;;;;5.33;2.50;;;12.50;50.30;;;;;;5144209;27;20078;-85
2022/02/18 12:36:12;;;;;;;6.63;1.90;;;12.40;50.30;;;;;;5148665;27;20114;-85
2022/02/18 12:38:42;;;;;;;7.07;2.13;;;12.40;50.10;;;;;;5135733;27;20030;-84
2022/02/18 12:41:13;;;;;;;7.40;2.13;;;12.40;50.10;;;;;;5135054;27;20023;-86
2022/02/18 12:43:41;;;;;;;8.03;2.80;;;12.50;49.70;;;;;;5131121;27;20114;-85
2022/02/18 12:46:08;;;;;;;10.80;3.33;;;12.50;50.00;;;;;;5139773;27;20043;-86
2022/02/18 12:48:39;;;;;;;11.50;3.33;;;12.50;50.10;;;;;;5120519;27;20381;-86
2022/02/18 12:51:25;;;;;;;7.73;2.50;;;12.60;50.30;;;;;;5154996;27;20044;-86
2022/02/18 12:53:53;;;;;;;10.33;2.40;;;12.70;49.90;;;;;;5138779;27;20053;-85